Time;durP1;ratioP1;P1;durP2;ratioP2;P2;SDS_P1;SDS_P2;PMS_P1;PMS_P2;Temp;Humidity;BMP_temperature;BMP_pressure;BME280_temperature;BME280_humidity;BME280_pressure;Samples;Min_cycle;Max_cycle;Signal;HPM_P1;HPM_P2
2023/01/31 00:00:48;;;;;;;11.47;5.93;;;;;;;;;;5114440;28;20054;-65
2023/01/31 00:03:13;;;;;;;9.00;5.50;;;;;;;;;;5114617;28;20139;-66
2023/01/31 00:05:39;;;;;;;13.20;6.00;;;;;;;;;;5080887;28;20084;-66
2023/01/31 00:08:04;;;;;;;10.13;5.77;;;;;;;;;;5131465;27;20040;-66
2023/01/31 00:10:30;;;;;;;10.13;5.60;;;;;;;;;;5097091;28;20385;-66
2023/01/31 00:12:56;;;;;;;14.13;6.27;;;;;;;;;;5131298;27;20055;-66
2023/01/31 00:15:21;;;;;;;13.67;6.40;;;;;;;;;;5096892;28;20067;-66
2023/01/31 00:17:47;;;;;;;13.43;5.90;;;;;;;;;;5080280;28;20040;-66
2023/01/31 00:20:12;;;;;;;11.93;6.17;;;;;;;;;;5097023;28;20514;-66
2023/01/31 00:22:38;;;;;;;11.60;6.70;;;;;;;;;;5131379;27;20457;-66
2023/01/31 00:25:04;;;;;;;11.93;5.87;;;;;;;;;;5096889;28;20032;-66
2023/01/31 00:27:30;;;;;;;11.23;5.90;;;;;;;;;;5080037;28;20036;-66
2023/01/31 00:29:55;;;;;;;9.60;5.57;;;;;;;;;;5096813;28;20489;-67
2023/01/31 00:32:21;;;;;;;11.23;6.10;;;;;;;;;;5096662;28;20031;-66
2023/01/31 00:34:49;;;;;;;9.87;6.17;;;;;;;;;;5079631;28;20038;-66
2023/01/31 00:37:15;;;;;;;9.40;5.50;;;;;;;;;;5096886;28;20400;-66
2023/01/31 00:39:40;;;;;;;9.60;6.10;;;;;;;;;;5096806;28;20035;-66
2023/01/31 00:42:07;;;;;;;14.83;7.20;;;;;;;;;;5080017;28;20062;-66
2023/01/31 00:44:33;;;;;;;12.67;6.23;;;;;;;;;;5096471;28;20031;-66
2023/01/31 00:46:58;;;;;;;9.33;5.70;;;;;;;;;;5130633;27;20079;-66
2023/01/31 00:49:24;;;;;;;9.97;6.00;;;;;;;;;;5096542;28;20027;-65
2023/01/31 00:51:49;;;;;;;11.13;6.17;;;;;;;;;;5130362;27;20039;-66
2023/01/31 00:54:15;;;;;;;11.73;5.73;;;;;;;;;;5096402;28;20035;-66
2023/01/31 00:56:41;;;;;;;9.53;5.70;;;;;;;;;;5063247;28;20122;-66
2023/01/31 00:59:07;;;;;;;9.73;5.87;;;;;;;;;;5078888;28;20046;-66
2023/01/31 01:01:34;;;;;;;11.03;6.10;;;;;;;;;;5096295;28;20088;-65
2023/01/31 01:03:59;;;;;;;14.13;6.03;;;;;;;;;;5079327;28;20028;-66
2023/01/31 01:06:25;;;;;;;14.37;6.87;;;;;;;;;;5096083;28;20040;-65
2023/01/31 01:08:51;;;;;;;11.20;6.37;;;;;;;;;;5096912;28;20062;-65
2023/01/31 01:11:19;;;;;;;12.70;7.17;;;;;;;;;;5080275;28;20083;-66
2023/01/31 01:13:45;;;;;;;12.50;6.13;;;;;;;;;;5080551;28;20040;-66
2023/01/31 01:16:16;;;;;;;12.50;6.43;;;;;;;;;;5096780;28;20051;-65
2023/01/31 01:18:43;;;;;;;11.43;7.10;;;;;;;;;;5096600;28;20381;-65
2023/01/31 01:21:11;;;;;;;15.10;7.63;;;;;;;;;;5095939;28;20039;-66
2023/01/31 01:23:37;;;;;;;13.13;6.27;;;;;;;;;;5112919;28;20035;-66
2023/01/31 01:26:04;;;;;;;12.90;6.73;;;;;;;;;;5078744;28;20126;-65
2023/01/31 01:28:32;;;;;;;14.13;6.50;;;;;;;;;;5095655;28;20477;-66
2023/01/31 01:30:58;;;;;;;10.07;5.80;;;;;;;;;;5095695;28;20048;-66
2023/01/31 01:33:24;;;;;;;12.93;6.67;;;;;;;;;;5129664;27;20027;-67
2023/01/31 01:35:50;;;;;;;10.23;6.20;;;;;;;;;;5078877;28;20023;-69
2023/01/31 01:38:15;;;;;;;10.83;5.47;;;;;;;;;;5129903;27;20461;-66
2023/01/31 01:40:41;;;;;;;11.03;6.00;;;;;;;;;;5078895;28;20120;-66
2023/01/31 01:43:08;;;;;;;10.50;6.30;;;;;;;;;;5129653;27;20032;-66
2023/01/31 01:45:34;;;;;;;14.27;5.80;;;;;;;;;;5095176;28;20500;-66
2023/01/31 01:48:02;;;;;;;10.33;5.90;;;;;;;;;;5129611;27;20035;-66
2023/01/31 01:50:29;;;;;;;12.83;6.70;;;;;;;;;;5095342;28;20051;-67
2023/01/31 01:53:04;;;;;;;11.13;6.43;;;;;;;;;;5095402;28;20032;-66
2023/01/31 01:55:35;;;;;;;10.73;6.23;;;;;;;;;;5078459;28;20130;-66
2023/01/31 01:58:05;;;;;;;11.90;6.63;;;;;;;;;;5095563;28;20466;-66
2023/01/31 02:00:32;;;;;;;11.30;5.30;;;;;;;;;;5095256;28;20058;-66
2023/01/31 02:02:59;;;;;;;9.73;6.17;;;;;;;;;;5078307;28;20039;-66
2023/01/31 02:05:34;;;;;;;10.00;5.70;;;;;;;;;;5094875;28;20067;-67
2023/01/31 02:08:01;;;;;;;10.50;5.83;;;;;;;;;;5095462;28;20126;-66
2023/01/31 02:10:32;;;;;;;16.33;7.03;;;;;;;;;;5094166;28;20049;-66
2023/01/31 02:12:58;;;;;;;13.95;6.75;;;;;;;;;;5078008;28;20113;-66
2023/01/31 02:15:28;;;;;;;13.87;6.73;;;;;;;;;;5095446;28;20050;-66
2023/01/31 02:17:53;;;;;;;12.60;6.37;;;;;;;;;;5061376;28;20035;-66
2023/01/31 02:20:29;;;;;;;13.87;6.20;;;;;;;;;;5094801;28;20061;-67
2023/01/31 02:22:58;;;;;;;15.97;6.77;;;;;;;;;;5061550;28;20060;-66
2023/01/31 02:25:46;;;;;;;13.13;6.47;;;;;;;;;;5078166;28;20075;-66
2023/01/31 02:28:18;;;;;;;9.40;5.93;;;;;;;;;;5094646;28;20038;-66
2023/01/31 02:31:07;;;;;;;11.83;6.43;;;;;;;;;;5061441;28;20043;-66
2023/01/31 02:33:33;;;;;;;10.33;5.90;;;;;;;;;;5108634;28;20041;-66
2023/01/31 02:36:18;;;;;;;16.53;6.30;;;;;;;;;;5061162;28;20043;-66
2023/01/31 02:39:10;;;;;;;11.90;6.47;;;;;;;;;;5061068;28;20070;-66
2023/01/31 02:41:35;;;;;;;11.50;6.00;;;;;;;;;;5094793;28;20032;-66
2023/01/31 02:46:50;;;;;;;10.97;6.23;;;;;;;;;;5077914;28;20104;-67
2023/01/31 02:49:38;;;;;;;11.27;6.07;;;;;;;;;;5077973;28;20040;-67
2023/01/31 02:52:40;;;;;;;11.63;6.43;;;;;;;;;;5093058;28;20576;-66
2023/01/31 02:57:59;;;;;;;;;;;;;;;;;;5078082;28;20043;-66
2023/01/31 03:00:26;;;;;;;11.50;6.03;;;;;;;;;;5077516;28;19911;-66
2023/01/31 03:02:52;;;;;;;10.73;6.70;;;;;;;;;;5111528;28;20036;-67
2023/01/31 03:05:18;;;;;;;11.97;6.47;;;;;;;;;;5094932;28;20446;-66
2023/01/31 03:07:46;;;;;;;10.67;6.23;;;;;;;;;;5095059;28;20146;-66
2023/01/31 03:10:31;;;;;;;14.53;6.63;;;;;;;;;;5078168;28;20058;-67
2023/01/31 03:13:19;;;;;;;12.40;6.43;;;;;;;;;;5044312;28;20545;-65
2023/01/31 03:18:47;;;;;;;8.60;5.70;;;;;;;;;;5054366;28;20032;-66
2023/01/31 03:21:17;;;;;;;10.03;6.17;;;;;;;;;;5054220;28;20136;-67
2023/01/31 03:23:44;;;;;;;9.97;6.47;;;;;;;;;;5057913;28;20040;-67
2023/01/31 03:26:10;;;;;;;14.10;7.30;;;;;;;;;;5074480;28;20040;-66
2023/01/31 03:28:40;;;;;;;12.67;6.17;;;;;;;;;;5074606;28;20127;-67
2023/01/31 03:31:13;;;;;;;11.52;7.25;;;;;;;;;;5074218;28;20402;-67
2023/01/31 03:33:39;;;;;;;11.50;6.47;;;;;;;;;;5074619;28;20087;-66
2023/01/31 03:36:05;;;;;;;12.07;6.97;;;;;;;;;;5074189;28;20478;-67
2023/01/31 03:38:36;;;;;;;11.67;6.60;;;;;;;;;;5057533;28;20505;-65
2023/01/31 03:41:07;;;;;;;9.07;5.63;;;;;;;;;;5057723;28;20036;-65
2023/01/31 03:43:33;;;;;;;10.70;6.50;;;;;;;;;;5057157;28;20043;-66
2023/01/31 03:46:06;;;;;;;17.00;6.60;;;;;;;;;;5057439;28;20032;-65
2023/01/31 03:48:34;;;;;;;14.00;7.37;;;;;;;;;;5057312;28;20059;-66
2023/01/31 03:51:02;;;;;;;14.73;6.67;;;;;;;;;;5057169;28;20041;-66
2023/01/31 03:53:38;;;;;;;10.30;6.47;;;;;;;;;;5073817;28;20051;-66
2023/01/31 03:56:14;;;;;;;11.67;6.77;;;;;;;;;;5074375;28;20051;-66
2023/01/31 03:58:43;;;;;;;11.87;7.40;;;;;;;;;;5056987;28;20368;-66
2023/01/31 04:01:11;;;;;;;15.37;7.37;;;;;;;;;;5090717;28;20071;-66
2023/01/31 04:03:42;;;;;;;11.60;6.30;;;;;;;;;;5090629;28;20470;-65
2023/01/31 04:06:08;;;;;;;;;;;;;;;;;;5074058;28;20051;-66
2023/01/31 04:08:34;;;;;;;13.77;8.10;;;;;;;;;;5073378;28;19913;-66
2023/01/31 04:11:04;;;;;;;12.93;7.20;;;;;;;;;;5056630;28;20543;-65
2023/01/31 04:13:30;;;;;;;13.53;7.47;;;;;;;;;;5111092;28;20065;-65
2023/01/31 04:15:56;;;;;;;14.70;7.60;;;;;;;;;;5096910;28;20039;-66
2023/01/31 04:18:21;;;;;;;14.10;7.93;;;;;;;;;;5114145;28;20039;-65
2023/01/31 04:20:47;;;;;;;13.63;7.87;;;;;;;;;;5096513;28;20562;-65
2023/01/31 04:23:13;;;;;;;11.10;6.93;;;;;;;;;;5130601;27;20552;-66
2023/01/31 04:25:38;;;;;;;14.67;7.23;;;;;;;;;;5096999;28;20040;-66
2023/01/31 04:28:04;;;;;;;13.97;7.60;;;;;;;;;;5079762;28;20056;-66
2023/01/31 04:30:29;;;;;;;14.80;8.70;;;;;;;;;;5079475;28;20093;-67
2023/01/31 04:32:56;;;;;;;15.63;7.77;;;;;;;;;;5096260;28;20481;-66
2023/01/31 04:35:21;;;;;;;13.97;7.97;;;;;;;;;;5096362;28;20039;-65
2023/01/31 04:37:48;;;;;;;17.10;8.33;;;;;;;;;;5079568;28;20031;-65
2023/01/31 04:40:13;;;;;;;20.73;8.67;;;;;;;;;;5096393;28;20094;-65
2023/01/31 04:42:39;;;;;;;20.00;9.03;;;;;;;;;;5079530;28;20059;-65
2023/01/31 04:45:05;;;;;;;16.53;8.97;;;;;;;;;;5096578;28;20036;-65
2023/01/31 04:47:31;;;;;;;15.07;8.40;;;;;;;;;;5079351;28;20107;-66
2023/01/31 04:49:56;;;;;;;17.33;8.70;;;;;;;;;;5095390;28;20427;-65
2023/01/31 04:52:23;;;;;;;15.77;9.03;;;;;;;;;;5095711;27;20640;-67
2023/01/31 04:54:48;;;;;;;18.13;8.60;;;;;;;;;;5080322;27;20062;-67
2023/01/31 04:57:14;;;;;;;15.87;9.13;;;;;;;;;;5098068;27;20078;-67
2023/01/31 04:59:40;;;;;;;16.07;8.73;;;;;;;;;;5082001;27;20102;-66
2023/01/31 05:02:05;;;;;;;13.47;7.47;;;;;;;;;;5098463;27;20031;-67
2023/01/31 05:04:31;;;;;;;14.37;8.00;;;;;;;;;;5081528;27;20431;-67
2023/01/31 05:06:57;;;;;;;15.07;8.40;;;;;;;;;;5098868;27;20130;-66
2023/01/31 05:09:23;;;;;;;14.87;7.80;;;;;;;;;;5081918;27;20027;-66
2023/01/31 05:11:49;;;;;;;14.27;7.00;;;;;;;;;;5097383;27;20466;-66
2023/01/31 05:14:15;;;;;;;14.13;7.10;;;;;;;;;;5133316;27;20126;-67
2023/01/31 05:16:44;;;;;;;14.33;6.73;;;;;;;;;;5098448;27;20038;-66
2023/01/31 05:19:10;;;;;;;11.70;7.10;;;;;;;;;;5098348;27;20027;-66
2023/01/31 05:21:53;;;;;;;12.10;7.33;;;;;;;;;;5081122;27;20130;-68
2023/01/31 05:24:22;;;;;;;14.40;7.47;;;;;;;;;;5081071;27;20035;-66
2023/01/31 05:26:50;;;;;;;15.73;6.87;;;;;;;;;;5098409;27;20107;-66
2023/01/31 05:29:16;;;;;;;10.53;6.50;;;;;;;;;;5081303;27;20074;-68
2023/01/31 05:31:41;;;;;;;19.87;7.30;;;;;;;;;;5097961;27;20078;-66
2023/01/31 05:34:09;;;;;;;13.17;7.07;;;;;;;;;;5081322;27;20034;-67
2023/01/31 05:36:34;;;;;;;13.93;7.80;;;;;;;;;;5097954;27;20035;-66
2023/01/31 05:39:00;;;;;;;13.03;7.07;;;;;;;;;;5078503;27;20362;-67
2023/01/31 05:41:25;;;;;;;13.60;7.43;;;;;;;;;;5105425;27;20458;-68
2023/01/31 05:43:51;;;;;;;12.30;7.57;;;;;;;;;;5079485;27;20540;-66
2023/01/31 05:46:17;;;;;;;16.07;7.07;;;;;;;;;;5095941;27;20346;-67
2023/01/31 05:48:42;;;;;;;11.00;6.70;;;;;;;;;;5078317;27;20024;-67
2023/01/31 05:51:08;;;;;;;13.63;7.50;;;;;;;;;;5095521;27;20495;-67
2023/01/31 05:53:33;;;;;;;11.07;6.90;;;;;;;;;;5093511;27;20125;-66
2023/01/31 05:55:59;;;;;;;12.33;6.50;;;;;;;;;;5076997;27;20034;-67
2023/01/31 05:58:24;;;;;;;11.53;7.43;;;;;;;;;;5113373;27;20042;-66
2023/01/31 06:00:53;;;;;;;13.70;7.07;;;;;;;;;;5078646;27;20038;-66
2023/01/31 06:03:19;;;;;;;11.57;6.60;;;;;;;;;;5093518;27;20038;-67
2023/01/31 06:05:45;;;;;;;12.10;7.23;;;;;;;;;;5096457;27;20027;-66
2023/01/31 06:08:11;;;;;;;11.53;6.60;;;;;;;;;;5079219;27;20042;-67
2023/01/31 06:10:37;;;;;;;12.97;6.70;;;;;;;;;;5076989;27;20045;-66
2023/01/31 06:13:02;;;;;;;12.63;6.90;;;;;;;;;;5129509;27;20384;-65
2023/01/31 06:15:28;;;;;;;13.47;6.83;;;;;;;;;;5097187;27;20050;-70
2023/01/31 06:17:53;;;;;;;16.47;7.03;;;;;;;;;;5097673;27;20548;-66
2023/01/31 06:20:19;;;;;;;13.60;7.93;;;;;;;;;;5095740;27;20030;-65
2023/01/31 06:22:44;;;;;;;22.87;8.20;;;;;;;;;;5077932;28;20038;-65
2023/01/31 06:25:10;;;;;;;17.47;8.20;;;;;;;;;;5095615;27;20537;-68
2023/01/31 06:27:36;;;;;;;14.30;7.90;;;;;;;;;;5095548;27;20422;-67
2023/01/31 06:30:01;;;;;;;20.07;7.17;;;;;;;;;;5077551;28;20039;-65
2023/01/31 06:32:30;;;;;;;12.97;7.57;;;;;;;;;;5112634;27;20031;-66
2023/01/31 06:34:56;;;;;;;13.20;7.87;;;;;;;;;;5087463;28;20434;-66
2023/01/31 06:37:21;;;;;;;17.77;8.20;;;;;;;;;;5077574;28;20050;-66
2023/01/31 06:39:47;;;;;;;14.63;7.43;;;;;;;;;;5112712;28;20511;-66
2023/01/31 06:42:15;;;;;;;15.27;7.93;;;;;;;;;;5090432;28;20054;-66
2023/01/31 06:44:40;;;;;;;12.00;7.27;;;;;;;;;;5112466;28;20054;-65
2023/01/31 06:47:06;;;;;;;14.80;7.97;;;;;;;;;;5077621;28;20031;-66
2023/01/31 06:49:31;;;;;;;12.33;7.70;;;;;;;;;;5095620;28;20035;-66
2023/01/31 06:51:57;;;;;;;14.97;7.63;;;;;;;;;;5078636;28;20476;-65
2023/01/31 06:54:23;;;;;;;17.37;7.80;;;;;;;;;;5076192;28;20068;-65
2023/01/31 06:56:48;;;;;;;14.10;7.53;;;;;;;;;;5096919;27;20027;-65
2023/01/31 06:59:14;;;;;;;13.00;7.80;;;;;;;;;;5082447;27;20407;-65
2023/01/31 07:01:39;;;;;;;12.27;7.10;;;;;;;;;;5080504;27;20057;-65
2023/01/31 07:04:05;;;;;;;14.67;7.90;;;;;;;;;;5097703;27;20039;-65
2023/01/31 07:06:30;;;;;;;16.70;7.70;;;;;;;;;;5099175;27;20445;-65
2023/01/31 07:08:56;;;;;;;11.90;6.83;;;;;;;;;;5082796;27;20068;-65
2023/01/31 07:11:22;;;;;;;13.47;7.07;;;;;;;;;;5079732;27;20489;-65
2023/01/31 07:13:49;;;;;;;12.27;7.47;;;;;;;;;;5079556;28;20063;-66
2023/01/31 07:16:15;;;;;;;13.03;7.17;;;;;;;;;;5075722;28;20036;-66
2023/01/31 07:18:41;;;;;;;16.13;8.40;;;;;;;;;;5076273;28;20105;-66
2023/01/31 07:21:07;;;;;;;13.37;7.63;;;;;;;;;;5059335;28;20059;-66
2023/01/31 07:23:32;;;;;;;14.80;7.47;;;;;;;;;;5075685;28;20104;-65
2023/01/31 07:26:01;;;;;;;16.10;7.40;;;;;;;;;;5059404;28;20121;-66
2023/01/31 07:28:27;;;;;;;13.83;7.40;;;;;;;;;;5092922;28;20126;-65
2023/01/31 07:30:52;;;;;;;13.80;7.67;;;;;;;;;;5058046;28;20465;-65
2023/01/31 07:33:18;;;;;;;14.33;7.23;;;;;;;;;;5090869;28;20046;-65
2023/01/31 07:35:44;;;;;;;13.57;8.53;;;;;;;;;;5058560;28;20024;-66
2023/01/31 07:38:09;;;;;;;13.00;7.37;;;;;;;;;;5075271;28;20076;-66
2023/01/31 07:40:35;;;;;;;18.40;8.53;;;;;;;;;;5058680;28;20102;-65
2023/01/31 07:43:01;;;;;;;16.23;8.13;;;;;;;;;;5091661;28;20089;-66
2023/01/31 07:45:26;;;;;;;16.33;8.50;;;;;;;;;;5059555;28;20032;-65
2023/01/31 07:47:52;;;;;;;15.90;8.37;;;;;;;;;;5075923;28;20048;-66
2023/01/31 07:50:18;;;;;;;15.57;8.40;;;;;;;;;;5058176;28;20032;-66
2023/01/31 07:52:43;;;;;;;13.10;7.37;;;;;;;;;;5075351;28;20447;-65
2023/01/31 07:55:09;;;;;;;13.83;8.00;;;;;;;;;;5076458;28;20480;-65
2023/01/31 07:57:35;;;;;;;12.80;7.33;;;;;;;;;;5076213;28;20127;-66
2023/01/31 08:00:00;;;;;;;15.10;7.77;;;;;;;;;;5093314;28;20127;-65
2023/01/31 08:05:10;;;;;;;18.10;7.57;;;;;;;;;;5093228;28;20323;-65
2023/01/31 08:07:36;;;;;;;12.83;7.87;;;;;;;;;;5076192;28;20043;-65
2023/01/31 08:10:02;;;;;;;13.70;7.90;;;;;;;;;;5076218;28;20442;-66
2023/01/31 08:12:29;;;;;;;12.70;8.20;;;;;;;;;;5092342;28;20056;-65
2023/01/31 08:14:54;;;;;;;12.07;7.60;;;;;;;;;;5076233;28;20031;-65
2023/01/31 08:17:20;;;;;;;13.37;7.97;;;;;;;;;;5075794;28;20127;-66
2023/01/31 08:19:46;;;;;;;11.53;6.73;;;;;;;;;;5076081;28;20381;-65
2023/01/31 08:22:12;;;;;;;14.70;7.70;;;;;;;;;;5077129;28;20424;-66
2023/01/31 08:24:38;;;;;;;14.33;7.73;;;;;;;;;;5078909;28;20119;-65
2023/01/31 08:27:03;;;;;;;12.20;7.30;;;;;;;;;;5079174;28;20083;-65
2023/01/31 08:29:29;;;;;;;16.00;7.83;;;;;;;;;;5079116;28;20051;-68
2023/01/31 08:31:55;;;;;;;13.60;7.83;;;;;;;;;;5079422;28;20534;-66
2023/01/31 08:34:22;;;;;;;13.57;7.73;;;;;;;;;;5079103;28;20038;-66
2023/01/31 08:36:47;;;;;;;15.70;8.13;;;;;;;;;;5079207;28;20101;-66
2023/01/31 08:39:13;;;;;;;13.03;7.37;;;;;;;;;;5078888;28;20393;-66
2023/01/31 08:41:39;;;;;;;11.20;7.47;;;;;;;;;;5079113;28;20027;-65
2023/01/31 08:44:05;;;;;;;11.97;6.60;;;;;;;;;;5078775;28;20487;-66
2023/01/31 08:46:32;;;;;;;12.67;7.43;;;;;;;;;;5078597;28;20408;-66
2023/01/31 08:48:59;;;;;;;15.00;7.77;;;;;;;;;;5096174;28;20235;-66
2023/01/31 08:51:24;;;;;;;12.13;7.67;;;;;;;;;;5078650;28;20050;-66
2023/01/31 08:53:50;;;;;;;13.47;7.43;;;;;;;;;;5095656;28;20027;-65
2023/01/31 08:56:16;;;;;;;13.53;7.57;;;;;;;;;;5095310;28;20042;-66
2023/01/31 08:58:42;;;;;;;12.33;7.63;;;;;;;;;;5112248;28;20047;-65
2023/01/31 09:01:10;;;;;;;11.43;7.90;;;;;;;;;;5078791;28;20036;-66
2023/01/31 09:03:35;;;;;;;14.67;8.53;;;;;;;;;;5095163;28;20480;-66
2023/01/31 09:06:02;;;;;;;12.70;6.97;;;;;;;;;;5078323;28;20035;-66
2023/01/31 09:08:28;;;;;;;13.97;7.23;;;;;;;;;;5095395;28;20027;-65
2023/01/31 09:10:54;;;;;;;12.20;7.60;;;;;;;;;;5095447;28;20086;-66
2023/01/31 09:13:20;;;;;;;13.50;7.97;;;;;;;;;;5094291;28;20128;-65
2023/01/31 09:15:46;;;;;;;16.37;8.53;;;;;;;;;;5095272;28;20107;-66
2023/01/31 09:18:12;;;;;;;13.23;7.57;;;;;;;;;;5095267;28;20423;-66
2023/01/31 09:20:38;;;;;;;15.43;8.00;;;;;;;;;;5077614;28;20039;-65
2023/01/31 09:23:03;;;;;;;13.50;7.33;;;;;;;;;;5094915;28;20038;-66
2023/01/31 09:25:29;;;;;;;15.10;8.37;;;;;;;;;;5077967;28;20082;-65
2023/01/31 09:27:54;;;;;;;16.13;8.67;;;;;;;;;;5078336;28;20565;-65
2023/01/31 09:30:20;;;;;;;12.10;7.40;;;;;;;;;;5111547;28;20058;-65
2023/01/31 09:32:46;;;;;;;13.10;7.17;;;;;;;;;;5077835;28;20485;-65
2023/01/31 09:35:12;;;;;;;17.33;8.70;;;;;;;;;;5077656;28;20050;-65
2023/01/31 09:37:38;;;;;;;13.97;7.60;;;;;;;;;;5077680;28;20031;-66
2023/01/31 09:40:04;;;;;;;15.30;7.87;;;;;;;;;;5077869;28;20050;-66
2023/01/31 09:42:34;;;;;;;15.87;7.97;;;;;;;;;;5094879;28;20377;-66
2023/01/31 09:45:06;;;;;;;13.13;7.68;;;;;;;;;;5129011;27;20031;-66
2023/01/31 09:47:52;;;;;;;12.37;7.30;;;;;;;;;;5094372;28;20031;-66
2023/01/31 09:50:33;;;;;;;12.70;6.60;;;;;;;;;;5093781;28;20047;-66
2023/01/31 09:52:59;;;;;;;14.57;7.97;;;;;;;;;;5093766;28;20032;-65
2023/01/31 09:55:31;;;;;;;13.10;7.60;;;;;;;;;;5094422;28;20043;-65
2023/01/31 09:58:03;;;;;;;13.87;7.63;;;;;;;;;;5094692;28;20122;-66
2023/01/31 10:00:29;;;;;;;14.33;7.73;;;;;;;;;;5094026;28;20035;-65
2023/01/31 10:03:16;;;;;;;12.50;8.07;;;;;;;;;;5094290;28;20488;-66
2023/01/31 10:05:51;;;;;;;14.00;8.07;;;;;;;;;;5110796;28;20107;-65
2023/01/31 10:08:20;;;;;;;12.03;7.50;;;;;;;;;;5093932;28;20138;-66
2023/01/31 10:10:47;;;;;;;12.57;8.00;;;;;;;;;;5094204;28;20489;-65
2023/01/31 10:13:20;;;;;;;15.20;8.33;;;;;;;;;;5110093;28;20155;-65
2023/01/31 10:15:55;;;;;;;14.37;8.83;;;;;;;;;;5110916;28;20035;-66
2023/01/31 10:18:26;;;;;;;13.57;8.10;;;;;;;;;;5110802;28;20123;-65
2023/01/31 10:21:11;;;;;;;15.57;8.60;;;;;;;;;;5110929;28;20027;-66
2023/01/31 10:23:57;;;;;;;15.77;9.03;;;;;;;;;;5093724;28;20050;-65
2023/01/31 10:26:24;;;;;;;14.10;7.90;;;;;;;;;;5127839;27;20035;-66
2023/01/31 10:28:54;;;;;;;16.53;8.57;;;;;;;;;;5093864;28;20416;-65
2023/01/31 10:31:38;;;;;;;16.33;8.80;;;;;;;;;;5092797;28;20058;-65
2023/01/31 10:34:09;;;;;;;14.17;8.40;;;;;;;;;;5093737;28;20067;-66
2023/01/31 10:36:35;;;;;;;;;;;;;;;;;;5094205;28;20035;-65
2023/01/31 10:39:19;;;;;;;12.97;7.73;;;;;;;;;;5076984;28;20391;-65
2023/01/31 10:42:03;;;;;;;12.70;7.50;;;;;;;;;;5093609;28;20038;-66
2023/01/31 10:44:35;;;;;;;15.40;7.90;;;;;;;;;;5093691;28;20170;-65
2023/01/31 10:47:01;;;;;;;12.13;7.07;;;;;;;;;;5110832;28;20043;-66
2023/01/31 10:49:27;;;;;;;14.40;6.97;;;;;;;;;;5094027;28;20039;-66
2023/01/31 10:51:56;;;;;;;13.10;7.47;;;;;;;;;;5110573;28;20359;-66
2023/01/31 10:54:21;;;;;;;13.30;7.70;;;;;;;;;;5093369;28;20043;-66
2023/01/31 10:56:47;;;;;;;13.97;7.60;;;;;;;;;;5110518;28;20381;-65
2023/01/31 10:59:19;;;;;;;13.90;7.87;;;;;;;;;;5093416;28;20036;-65
2023/01/31 11:01:44;;;;;;;17.13;7.67;;;;;;;;;;5093605;28;20093;-66
2023/01/31 11:04:29;;;;;;;15.17;7.67;;;;;;;;;;5110593;28;20453;-65
2023/01/31 11:06:56;;;;;;;12.97;7.17;;;;;;;;;;5093673;28;20041;-66
2023/01/31 11:09:23;;;;;;;13.07;7.70;;;;;;;;;;5110349;28;20432;-66
2023/01/31 11:11:59;;;;;;;14.87;7.93;;;;;;;;;;5092550;28;20074;-67
2023/01/31 11:14:25;;;;;;;11.73;7.03;;;;;;;;;;5096692;28;20408;-66
2023/01/31 11:17:09;;;;;;;13.10;8.10;;;;;;;;;;5113659;28;20096;-65
2023/01/31 11:19:37;;;;;;;18.27;8.00;;;;;;;;;;5096501;28;20540;-66
2023/01/31 11:22:03;;;;;;;12.60;7.63;;;;;;;;;;5113703;28;20031;-66
2023/01/31 11:24:31;;;;;;;14.37;7.63;;;;;;;;;;5113780;28;20043;-66
2023/01/31 11:27:05;;;;;;;14.57;7.20;;;;;;;;;;5096867;28;20060;-66
2023/01/31 11:29:31;;;;;;;13.67;7.93;;;;;;;;;;5096862;28;20088;-66
2023/01/31 11:31:58;;;;;;;12.47;7.47;;;;;;;;;;5096577;28;20051;-65
2023/01/31 11:34:24;;;;;;;13.40;7.87;;;;;;;;;;5096550;28;20038;-66
2023/01/31 11:36:50;;;;;;;21.33;8.07;;;;;;;;;;5096230;28;20035;-67
2023/01/31 11:39:23;;;;;;;12.27;7.63;;;;;;;;;;5096039;28;20524;-66
2023/01/31 11:41:51;;;;;;;13.93;7.67;;;;;;;;;;5096516;27;20416;-66
2023/01/31 11:44:18;;;;;;;12.53;7.47;;;;;;;;;;5099555;27;20019;-66
2023/01/31 11:46:58;;;;;;;12.33;6.43;;;;;;;;;;5100175;27;20035;-67
2023/01/31 11:49:29;;;;;;;15.88;8.00;;;;;;;;;;5134916;27;20027;-66
2023/01/31 11:51:56;;;;;;;15.75;7.68;;;;;;;;;;5115838;27;20066;-66
2023/01/31 11:54:32;;;;;;;12.33;6.93;;;;;;;;;;5099181;27;20039;-66
2023/01/31 11:56:59;;;;;;;12.70;7.57;;;;;;;;;;5096415;27;20039;-67
2023/01/31 11:59:27;;;;;;;17.00;7.27;;;;;;;;;;5098163;27;20042;-66
2023/01/31 12:01:55;;;;;;;16.47;9.27;;;;;;;;;;5115984;27;20030;-66
2023/01/31 12:04:23;;;;;;;15.07;7.63;;;;;;;;;;5078881;27;20514;-67
2023/01/31 12:06:57;;;;;;;12.67;8.50;;;;;;;;;;5115279;27;20117;-66
2023/01/31 12:09:24;;;;;;;15.87;8.30;;;;;;;;;;5110235;27;20049;-66
2023/01/31 12:11:55;;;;;;;13.83;8.00;;;;;;;;;;5114015;27;20043;-67
2023/01/31 12:14:23;;;;;;;13.82;7.82;;;;;;;;;;5095607;27;20516;-66
2023/01/31 12:16:52;;;;;;;16.13;8.57;;;;;;;;;;5115515;27;20117;-66
2023/01/31 12:19:24;;;;;;;16.93;8.17;;;;;;;;;;5092878;27;20031;-66
2023/01/31 12:22:02;;;;;;;14.83;8.00;;;;;;;;;;5096829;27;20028;-67
2023/01/31 12:24:28;;;;;;;12.67;7.97;;;;;;;;;;5111796;27;20126;-65
2023/01/31 12:26:54;;;;;;;14.67;8.03;;;;;;;;;;5098426;27;20121;-66
2023/01/31 12:29:31;;;;;;;15.33;7.73;;;;;;;;;;5098118;27;20063;-65
2023/01/31 12:32:03;;;;;;;16.23;8.60;;;;;;;;;;5080679;27;20252;-66
2023/01/31 12:34:38;;;;;;;16.67;8.67;;;;;;;;;;5079588;27;20044;-66
2023/01/31 12:37:11;;;;;;;15.07;9.07;;;;;;;;;;5097950;27;20031;-66
2023/01/31 12:39:56;;;;;;;16.27;9.77;;;;;;;;;;5098153;27;20030;-67
2023/01/31 12:42:27;;;;;;;16.37;8.03;;;;;;;;;;5109740;28;20043;-65
2023/01/31 12:44:59;;;;;;;23.53;9.70;;;;;;;;;;5097710;27;20027;-66
2023/01/31 12:47:39;;;;;;;18.87;10.03;;;;;;;;;;5130391;27;20050;-66
2023/01/31 12:50:23;;;;;;;16.77;8.80;;;;;;;;;;5081321;27;20096;-67
2023/01/31 12:53:07;;;;;;;20.30;9.40;;;;;;;;;;5113286;27;20044;-66
2023/01/31 12:55:42;;;;;;;18.33;8.70;;;;;;;;;;5095834;27;20121;-67
2023/01/31 12:58:17;;;;;;;16.10;9.47;;;;;;;;;;5111143;27;20523;-65
2023/01/31 13:00:53;;;;;;;17.80;8.73;;;;;;;;;;5097424;27;20034;-65
2023/01/31 13:03:22;;;;;;;15.60;7.27;;;;;;;;;;5109357;27;20024;-65
2023/01/31 13:05:57;;;;;;;15.13;8.93;;;;;;;;;;5095975;27;20039;-66
2023/01/31 13:08:27;;;;;;;15.93;8.97;;;;;;;;;;5114601;27;20035;-65
2023/01/31 13:11:04;;;;;;;14.07;8.15;;;;;;;;;;5098337;27;20080;-66
2023/01/31 13:13:36;;;;;;;14.67;8.60;;;;;;;;;;5114819;27;20508;-65
2023/01/31 13:16:04;;;;;;;15.60;8.23;;;;;;;;;;5098855;27;20537;-66
2023/01/31 13:18:31;;;;;;;13.47;7.13;;;;;;;;;;5098287;27;20081;-67
2023/01/31 13:21:00;;;;;;;13.80;7.40;;;;;;;;;;5132740;27;20041;-66
2023/01/31 13:23:30;;;;;;;18.90;8.17;;;;;;;;;;5115462;27;20134;-66
2023/01/31 13:25:58;;;;;;;17.80;8.25;;;;;;;;;;5098259;27;20099;-67
2023/01/31 13:28:27;;;;;;;13.73;7.87;;;;;;;;;;5115180;27;20059;-66
2023/01/31 13:30:57;;;;;;;14.43;8.30;;;;;;;;;;5098267;27;20098;-66
2023/01/31 13:33:23;;;;;;;18.42;8.65;;;;;;;;;;5097831;27;21014;-67
2023/01/31 13:36:02;;;;;;;17.67;8.53;;;;;;;;;;5097984;27;20035;-67
2023/01/31 13:38:33;;;;;;;17.03;9.00;;;;;;;;;;5097753;27;20035;-67
2023/01/31 13:40:59;;;;;;;22.77;9.50;;;;;;;;;;5115440;27;20035;-66
2023/01/31 13:43:24;;;;;;;16.53;8.50;;;;;;;;;;5097634;27;20127;-66
2023/01/31 13:46:11;;;;;;;14.27;8.03;;;;;;;;;;5097512;27;20452;-66
2023/01/31 13:48:40;;;;;;;16.77;8.37;;;;;;;;;;5114627;27;20051;-66
2023/01/31 13:51:16;;;;;;;16.10;8.40;;;;;;;;;;5096578;27;20125;-67
2023/01/31 13:53:51;;;;;;;15.83;8.30;;;;;;;;;;5080305;27;20444;-65
2023/01/31 13:56:25;;;;;;;14.33;8.30;;;;;;;;;;5097293;27;20026;-67
2023/01/31 13:58:51;;;;;;;14.53;8.50;;;;;;;;;;5097436;27;20037;-66
2023/01/31 14:01:19;;;;;;;17.70;8.50;;;;;;;;;;5114459;27;20122;-66
2023/01/31 14:04:03;;;;;;;16.20;8.77;;;;;;;;;;5080810;27;20039;-65
2023/01/31 14:06:47;;;;;;;15.27;8.70;;;;;;;;;;5097017;27;20035;-66
2023/01/31 14:09:22;;;;;;;16.63;8.70;;;;;;;;;;5097472;27;20043;-66
2023/01/31 14:11:48;;;;;;;15.17;8.40;;;;;;;;;;5096702;27;20071;-66
2023/01/31 14:14:18;;;;;;;16.93;8.83;;;;;;;;;;5079867;28;20464;-67
2023/01/31 14:16:45;;;;;;;18.40;9.98;;;;;;;;;;5079987;27;20027;-66
2023/01/31 14:19:30;;;;;;;16.73;9.47;;;;;;;;;;5080252;27;20039;-67
2023/01/31 14:22:12;;;;;;;20.20;10.13;;;;;;;;;;5097136;27;20042;-66
2023/01/31 14:24:48;;;;;;;15.10;9.10;;;;;;;;;;5097337;27;20083;-67
2023/01/31 14:27:21;;;;;;;15.80;8.50;;;;;;;;;;5096950;27;20062;-69
2023/01/31 14:30:09;;;;;;;19.23;9.33;;;;;;;;;;5080467;27;20138;-66
2023/01/31 14:32:47;;;;;;;18.70;8.73;;;;;;;;;;5080182;27;20057;-69
2023/01/31 14:35:12;;;;;;;19.43;9.47;;;;;;;;;;5096797;27;20062;-67
2023/01/31 14:37:59;;;;;;;17.03;8.87;;;;;;;;;;5113826;27;20070;-67
2023/01/31 14:40:49;;;;;;;18.93;8.17;;;;;;;;;;5078673;28;20038;-67
2023/01/31 14:43:21;;;;;;;16.40;8.67;;;;;;;;;;5097137;28;20130;-67
2023/01/31 14:46:02;;;;;;;17.97;8.67;;;;;;;;;;5096728;28;20035;-67
2023/01/31 14:48:46;;;;;;;17.53;8.90;;;;;;;;;;5079547;28;20330;-68
2023/01/31 14:51:13;;;;;;;16.73;8.80;;;;;;;;;;5096038;28;20043;-67
2023/01/31 14:53:42;;;;;;;25.90;9.63;;;;;;;;;;5113220;28;20130;-66